createdAt,value
2022-08-04T00:00:44.474Z,0.00
2022-08-04T00:01:44.627Z,0.00
2022-08-04T00:02:44.710Z,0.00
2022-08-04T00:03:44.435Z,0.00
2022-08-04T00:04:44.427Z,0.00
2022-08-04T00:05:44.413Z,0.00
2022-08-04T00:06:44.402Z,0.00
2022-08-04T00:07:45.362Z,0.00
2022-08-04T00:08:44.387Z,0.00
2022-08-04T00:09:44.375Z,0.00
2022-08-04T00:10:44.361Z,0.00
2022-08-04T00:11:44.346Z,0.00
2022-08-04T00:12:44.335Z,0.00
2022-08-04T00:13:58.077Z,0.00
2022-08-04T00:14:44.315Z,0.00
2022-08-04T00:15:44.301Z,0.00
2022-08-04T00:16:44.292Z,0.00
2022-08-04T00:17:44.281Z,0.00
2022-08-04T00:18:44.269Z,0.00
2022-08-04T00:19:44.261Z,0.00
2022-08-04T00:20:44.246Z,0.00
2022-08-04T00:21:44.235Z,0.00
2022-08-04T00:22:44.226Z,0.00
2022-08-04T00:24:10.398Z,0.00
2022-08-04T00:24:45.230Z,0.00
2022-08-04T00:25:44.190Z,0.00
2022-08-04T00:26:44.179Z,0.00
2022-08-04T00:27:44.172Z,0.00
2022-08-04T00:28:44.157Z,0.00
2022-08-04T00:29:44.152Z,0.00
2022-08-04T00:30:44.134Z,0.00
2022-08-04T00:31:56.650Z,0.00
2022-08-04T00:32:44.113Z,0.00
2022-08-04T00:33:44.102Z,0.00
2022-08-04T00:34:44.090Z,0.00
2022-08-04T00:35:44.078Z,0.00
2022-08-04T00:36:44.069Z,0.00
2022-08-04T00:37:44.055Z,0.00
2022-08-04T00:38:44.047Z,0.00
2022-08-04T00:39:44.036Z,0.00
2022-08-04T00:40:44.024Z,0.00
2022-08-04T00:41:56.683Z,0.00
2022-08-04T00:42:58.708Z,0.00
2022-08-04T00:43:43.988Z,0.00
2022-08-04T00:44:43.979Z,0.00
2022-08-04T00:46:15.387Z,0.00
2022-08-04T00:46:43.958Z,0.00
2022-08-04T00:47:43.944Z,0.00
2022-08-04T00:48:43.934Z,0.00
2022-08-04T00:49:43.923Z,0.00
2022-08-04T00:50:43.911Z,0.00
2022-08-04T00:51:43.899Z,0.00
2022-08-04T00:52:43.890Z,0.00
2022-08-04T00:53:49.946Z,0.00
2022-08-04T00:54:43.868Z,0.00
2022-08-04T00:55:43.857Z,0.00
2022-08-04T00:56:43.846Z,0.00
2022-08-04T00:57:43.832Z,0.00
2022-08-04T00:58:43.825Z,0.00
2022-08-04T00:59:43.820Z,0.00
2022-08-04T01:00:43.857Z,0.00
2022-08-04T01:01:43.998Z,0.00
2022-08-04T01:02:43.978Z,0.00
2022-08-04T01:03:43.899Z,0.00
2022-08-04T01:04:43.912Z,0.00
2022-08-04T01:05:43.903Z,0.00
2022-08-04T01:06:43.915Z,0.00
2022-08-04T01:07:43.724Z,0.00
2022-08-04T01:08:43.713Z,0.00
2022-08-04T01:09:43.701Z,0.00
2022-08-04T01:10:43.691Z,0.00
2022-08-04T01:11:57.605Z,0.00
2022-08-04T01:12:44.704Z,0.00
2022-08-04T01:13:43.659Z,0.00
2022-08-04T01:14:43.650Z,0.00
2022-08-04T01:16:00.208Z,0.00
2022-08-04T01:16:44.653Z,0.00
2022-08-04T01:17:43.623Z,0.00
2022-08-04T01:18:43.607Z,0.00
2022-08-04T01:19:43.593Z,0.00
2022-08-04T01:20:43.583Z,0.00
2022-08-04T01:21:43.570Z,0.00
2022-08-04T01:22:43.563Z,0.00
2022-08-04T01:23:43.549Z,0.00
2022-08-04T01:24:43.550Z,0.00
2022-08-04T01:25:43.528Z,0.00
2022-08-04T01:26:57.275Z,0.00
2022-08-04T01:27:44.532Z,0.00
2022-08-04T01:28:43.496Z,0.00
2022-08-04T01:29:46.808Z,0.00
2022-08-04T01:30:43.473Z,0.00
2022-08-04T01:31:43.461Z,0.00
2022-08-04T01:32:43.450Z,0.00
2022-08-04T01:34:03.434Z,0.00
2022-08-04T01:34:44.559Z,0.00
2022-08-04T01:35:47.794Z,0.00
2022-08-04T01:36:43.406Z,0.00
2022-08-04T01:37:44.455Z,0.00
2022-08-04T01:38:43.385Z,0.00
2022-08-04T01:39:43.386Z,0.00
2022-08-04T01:40:43.364Z,0.00
2022-08-04T01:41:43.350Z,0.00
2022-08-04T01:42:44.366Z,0.00
2022-08-04T01:43:43.328Z,0.00
2022-08-04T01:44:43.321Z,0.00
2022-08-04T01:45:43.304Z,0.00
2022-08-04T01:46:43.295Z,0.00
2022-08-04T01:47:43.284Z,0.00
2022-08-04T01:48:43.274Z,0.00
2022-08-04T01:49:43.261Z,0.00
2022-08-04T01:50:43.251Z,0.00
2022-08-04T01:51:43.239Z,0.00
2022-08-04T01:52:45.540Z,0.00
2022-08-04T01:53:43.216Z,0.00
2022-08-04T01:54:43.209Z,0.00
2022-08-04T01:55:55.013Z,0.00
2022-08-04T01:56:43.187Z,0.00
2022-08-04T01:57:43.175Z,0.00
2022-08-04T01:58:43.164Z,0.00
2022-08-04T01:59:43.156Z,0.00
2022-08-04T02:00:43.141Z,0.00
2022-08-04T02:01:43.317Z,0.00
2022-08-04T02:02:43.212Z,0.00
2022-08-04T02:04:21.128Z,0.00
2022-08-04T02:04:44.122Z,0.00
2022-08-04T02:06:03.930Z,0.00
2022-08-04T02:06:44.098Z,0.00
2022-08-04T02:07:43.063Z,0.00
2022-08-04T02:08:43.053Z,0.00
2022-08-04T02:09:55.104Z,0.00
2022-08-04T02:10:43.028Z,0.00
2022-08-04T02:11:43.019Z,0.00
2022-08-04T02:12:43.007Z,0.00
2022-08-04T02:13:42.997Z,0.00
2022-08-04T02:14:43.001Z,0.00
2022-08-04T02:15:42.978Z,0.00
2022-08-04T02:16:42.962Z,0.00
2022-08-04T02:17:42.951Z,0.00
2022-08-04T02:18:42.945Z,0.00
2022-08-04T02:19:42.929Z,0.00
2022-08-04T02:20:42.919Z,0.00
2022-08-04T02:21:43.125Z,0.00
2022-08-04T02:22:42.895Z,0.00
2022-08-04T02:23:42.885Z,0.00
2022-08-04T02:24:42.872Z,0.00
2022-08-04T02:25:42.861Z,0.00
2022-08-04T02:26:42.848Z,0.00
2022-08-04T02:27:59.270Z,0.00
2022-08-04T02:28:42.826Z,0.00
2022-08-04T02:29:42.818Z,0.00
2022-08-04T02:30:42.802Z,0.00
2022-08-04T02:31:42.793Z,0.00
2022-08-04T02:32:42.778Z,0.00
2022-08-04T02:33:42.770Z,0.00
2022-08-04T02:34:42.755Z,0.00
2022-08-04T02:35:42.746Z,0.00
2022-08-04T02:36:42.733Z,0.00
2022-08-04T02:37:42.722Z,0.00
2022-08-04T02:38:42.709Z,0.00
2022-08-04T02:39:48.794Z,0.00
2022-08-04T02:40:42.686Z,0.00
2022-08-04T02:41:42.679Z,0.00
2022-08-04T02:42:42.663Z,0.00
2022-08-04T02:43:51.787Z,0.00
2022-08-04T02:44:42.641Z,0.00
2022-08-04T02:45:42.634Z,0.00
2022-08-04T02:46:42.621Z,0.00
2022-08-04T02:48:25.184Z,0.00
2022-08-04T02:48:43.721Z,0.00
2022-08-04T02:49:42.590Z,0.00
2022-08-04T02:50:42.575Z,0.00
2022-08-04T02:51:42.563Z,0.00
2022-08-04T02:52:42.547Z,0.00
2022-08-04T02:53:42.536Z,0.00
2022-08-04T02:54:42.525Z,0.00
2022-08-04T02:55:51.092Z,0.00
2022-08-04T02:56:42.504Z,0.00
2022-08-04T02:57:42.491Z,0.00
2022-08-04T02:58:42.478Z,0.00
2022-08-04T02:59:42.469Z,0.00
2022-08-04T03:00:42.494Z,4.00
2022-08-04T03:01:56.806Z,4.00
2022-08-04T03:02:42.432Z,4.00
2022-08-04T03:03:42.420Z,0.00
2022-08-04T03:04:42.407Z,4.00
2022-08-04T03:05:54.181Z,4.00
2022-08-04T03:06:42.386Z,0.00
2022-08-04T03:07:42.377Z,4.00
2022-08-04T03:08:42.361Z,4.00
2022-08-04T03:09:42.362Z,4.00
2022-08-04T03:10:42.340Z,4.00
2022-08-04T03:11:42.329Z,8.00
2022-08-04T03:12:42.315Z,8.00
2022-08-04T03:13:42.304Z,8.00
2022-08-04T03:14:42.319Z,12.00
2022-08-04T03:15:42.282Z,12.00
2022-08-04T03:16:42.270Z,16.00
2022-08-04T03:17:52.954Z,16.00
2022-08-04T03:18:42.248Z,16.00
2022-08-04T03:19:42.242Z,20.00
2022-08-04T03:20:42.221Z,24.00
2022-08-04T03:21:42.211Z,24.00
2022-08-04T03:23:06.213Z,28.00
2022-08-04T03:23:43.216Z,36.00
2022-08-04T03:24:42.175Z,40.00
2022-08-04T03:25:54.405Z,48.00
2022-08-04T03:26:43.181Z,52.00
2022-08-04T03:27:42.142Z,64.00
2022-08-04T03:28:42.131Z,72.00
2022-08-04T03:29:42.121Z,80.00
2022-08-04T03:30:42.105Z,92.00
2022-08-04T03:31:42.095Z,100.00
2022-08-04T03:32:42.082Z,116.00
2022-08-04T03:33:42.074Z,132.00
2022-08-04T03:34:42.059Z,148.00
2022-08-04T03:35:42.052Z,168.00
2022-08-04T03:36:42.035Z,184.00
2022-08-04T03:37:42.029Z,200.00
2022-08-04T03:38:42.012Z,220.00
2022-08-04T03:39:42.103Z,236.00
2022-08-04T03:40:41.989Z,256.00
2022-08-04T03:41:57.497Z,272.00
2022-08-04T03:42:41.967Z,292.00
2022-08-04T03:43:58.917Z,316.00
2022-08-04T03:44:42.974Z,344.00
2022-08-04T03:45:41.940Z,376.00
2022-08-04T03:46:41.919Z,408.00
2022-08-04T03:47:42.338Z,444.00
2022-08-04T03:48:41.897Z,480.00
2022-08-04T03:49:41.886Z,512.00
2022-08-04T03:50:41.877Z,548.00
2022-08-04T03:51:41.865Z,588.00
2022-08-04T03:52:41.851Z,632.00
2022-08-04T03:53:41.843Z,684.00
2022-08-04T03:54:41.829Z,740.00
2022-08-04T03:55:41.820Z,796.00
2022-08-04T03:56:41.806Z,872.00
2022-08-04T03:57:41.800Z,956.00
2022-08-04T03:58:41.785Z,1044.00
2022-08-04T03:59:41.775Z,1136.00
2022-08-04T04:00:41.763Z,1240.00
2022-08-04T04:02:02.637Z,1368.00
2022-08-04T04:02:42.853Z,1456.00
2022-08-04T04:03:41.731Z,1560.00
2022-08-04T04:04:41.722Z,1632.00
2022-08-04T04:06:00.133Z,1720.00
2022-08-04T04:06:43.390Z,1788.00
2022-08-04T04:07:42.711Z,1844.00
2022-08-04T04:08:41.671Z,1908.00
2022-08-04T04:09:57.524Z,1976.00
2022-08-04T04:10:41.653Z,2004.00
2022-08-04T04:11:54.456Z,2020.00
2022-08-04T04:12:41.630Z,2072.00
2022-08-04T04:13:41.616Z,2120.00
2022-08-04T04:14:41.603Z,2188.00
2022-08-04T04:15:41.592Z,2260.00
2022-08-04T04:16:41.580Z,2340.00
2022-08-04T04:17:41.571Z,2460.00
2022-08-04T04:18:41.556Z,2628.00
2022-08-04T04:19:41.545Z,2796.00
2022-08-04T04:20:41.532Z,2924.00
2022-08-04T04:21:41.524Z,3148.00
2022-08-04T04:22:41.521Z,3264.00
2022-08-04T04:23:41.507Z,3380.00
2022-08-04T04:24:41.491Z,3564.00
2022-08-04T04:25:41.478Z,3672.00
2022-08-04T04:26:41.485Z,3768.00
2022-08-04T04:27:41.453Z,3872.00
2022-08-04T04:28:46.123Z,3952.00
2022-08-04T04:29:41.433Z,4052.00
2022-08-04T04:30:41.418Z,4192.00
2022-08-04T04:31:41.409Z,4372.00
2022-08-04T04:32:41.397Z,4556.00
2022-08-04T04:33:41.388Z,4820.00
2022-08-04T04:34:45.856Z,4988.00
2022-08-04T04:35:41.446Z,5168.00
2022-08-04T04:36:41.357Z,5304.00
2022-08-04T04:37:48.907Z,5492.00
2022-08-04T04:38:41.330Z,5720.00
2022-08-04T04:39:41.401Z,5928.00
2022-08-04T04:40:41.311Z,6052.00
2022-08-04T04:41:41.301Z,6384.00
2022-08-04T04:42:41.284Z,6656.00
2022-08-04T04:43:51.873Z,6980.00
2022-08-04T04:44:41.265Z,7184.00
2022-08-04T04:45:41.256Z,7428.00
2022-08-04T04:46:41.299Z,7520.00
2022-08-04T04:48:01.705Z,7564.00
2022-08-04T04:48:41.226Z,7588.00
2022-08-04T04:49:41.215Z,7404.00
2022-08-04T04:50:41.198Z,7308.00
2022-08-04T04:51:41.191Z,7224.00
2022-08-04T04:52:41.173Z,7148.00
2022-08-04T04:53:41.169Z,7128.00
2022-08-04T04:54:41.159Z,6932.00
2022-08-04T04:55:43.965Z,6868.00
2022-08-04T04:56:41.133Z,6756.00
2022-08-04T04:57:52.617Z,6880.00
2022-08-04T04:58:42.139Z,7004.00
2022-08-04T04:59:41.117Z,6996.00
2022-08-04T05:00:41.087Z,6944.00
2022-08-04T05:01:41.078Z,7108.00
2022-08-04T05:02:41.066Z,8204.00
2022-08-04T05:03:41.057Z,7296.00
2022-08-04T05:04:41.040Z,7400.00
2022-08-04T05:05:41.031Z,7804.00
2022-08-04T05:06:41.021Z,7748.00
2022-08-04T05:07:41.009Z,6920.00
2022-08-04T05:08:41.084Z,6664.00
2022-08-04T05:09:40.991Z,6848.00
2022-08-04T05:10:40.977Z,7108.00
2022-08-04T05:11:40.966Z,7500.00
2022-08-04T05:14:30.882Z,7792.00
2022-08-04T05:14:35.371Z,7864.00
2022-08-04T05:14:41.735Z,7980.00
2022-08-04T05:15:41.518Z,8184.00
2022-08-04T05:16:40.910Z,8756.00
2022-08-04T05:17:40.905Z,8004.00
2022-08-04T05:18:40.904Z,7756.00
2022-08-04T05:19:40.901Z,7736.00
2022-08-04T05:20:40.871Z,7752.00
2022-08-04T05:21:40.857Z,9800.00
2022-08-04T05:22:40.973Z,10740.00
2022-08-04T05:23:40.836Z,9748.00
2022-08-04T05:24:40.820Z,8528.00
2022-08-04T05:25:40.813Z,7228.00
2022-08-04T05:26:40.800Z,7408.00
2022-08-04T05:27:40.793Z,7120.00
2022-08-04T05:28:40.776Z,7240.00
2022-08-04T05:29:41.111Z,7620.00
2022-08-04T05:30:40.757Z,8300.00
2022-08-04T05:31:40.746Z,8888.00
2022-08-04T05:32:40.735Z,9804.00
2022-08-04T05:33:40.731Z,10276.00
2022-08-04T05:34:40.714Z,10380.00
2022-08-04T05:36:16.793Z,9900.00
2022-08-04T05:36:41.818Z,9540.00
2022-08-04T05:37:40.681Z,11404.00
2022-08-04T05:38:40.667Z,9616.00
2022-08-04T05:39:40.701Z,9332.00
2022-08-04T05:40:40.648Z,9156.00
2022-08-04T05:41:45.300Z,8880.00
2022-08-04T05:42:40.624Z,7840.00
2022-08-04T05:43:40.614Z,7352.00
2022-08-04T05:44:40.604Z,7044.00
2022-08-04T05:45:40.590Z,7164.00
2022-08-04T05:46:40.578Z,8480.00
2022-08-04T05:47:40.572Z,8228.00
2022-08-04T05:48:40.560Z,9024.00
2022-08-04T05:49:40.546Z,8432.00
2022-08-04T05:50:40.536Z,8996.00
2022-08-04T05:51:40.527Z,9596.00
2022-08-04T05:52:40.512Z,10216.00
2022-08-04T05:53:40.503Z,11116.00
2022-08-04T05:54:40.495Z,11420.00
2022-08-04T05:55:57.009Z,11544.00
2022-08-04T05:56:41.505Z,11704.00
2022-08-04T05:57:40.460Z,11700.00
2022-08-04T05:58:40.446Z,11684.00
2022-08-04T05:59:40.437Z,11876.00
2022-08-04T06:00:41.815Z,12584.00
2022-08-04T06:01:55.098Z,13104.00
2022-08-04T06:02:41.433Z,13608.00
2022-08-04T06:03:40.392Z,13364.00
2022-08-04T06:04:40.399Z,12820.00
2022-08-04T06:05:40.373Z,13216.00
2022-08-04T06:06:40.381Z,16384.00
2022-08-04T06:08:12.821Z,14980.00
2022-08-04T06:08:41.365Z,15936.00
2022-08-04T06:09:40.325Z,15104.00
2022-08-04T06:10:40.312Z,15336.00
2022-08-04T06:12:02.149Z,15956.00
2022-08-04T06:12:40.294Z,17248.00
2022-08-04T06:13:48.959Z,19008.00
2022-08-04T06:14:40.279Z,19360.00
2022-08-04T06:15:40.262Z,19424.00
2022-08-04T06:16:40.258Z,18624.00
2022-08-04T06:19:57.460Z,17632.00
2022-08-04T06:20:01.315Z,18784.00
2022-08-04T06:20:03.108Z,17952.00
2022-08-04T06:20:40.204Z,19584.00
2022-08-04T06:21:40.193Z,20768.00
2022-08-04T06:22:40.184Z,21888.00
2022-08-04T06:23:53.209Z,22688.00
2022-08-04T06:24:40.162Z,22144.00
2022-08-04T06:25:40.151Z,21248.00
2022-08-04T06:26:40.140Z,20256.00
2022-08-04T06:27:40.132Z,19136.00
2022-08-04T06:28:40.134Z,18432.00
2022-08-04T06:29:40.104Z,17632.00
2022-08-04T06:30:40.094Z,16960.00
2022-08-04T06:32:30.410Z,16896.00
2022-08-04T06:32:41.999Z,16960.00
2022-08-04T06:33:55.054Z,16832.00
2022-08-04T06:34:41.083Z,17088.00
2022-08-04T06:35:40.039Z,17152.00
2022-08-04T06:36:40.029Z,17440.00
2022-08-04T06:37:42.780Z,17664.00
2022-08-04T06:38:40.016Z,18080.00
2022-08-04T06:39:40.063Z,18624.00
2022-08-04T06:40:39.990Z,19008.00
2022-08-04T06:42:01.893Z,19200.00
2022-08-04T06:42:39.966Z,19360.00
2022-08-04T06:43:42.823Z,20192.00
2022-08-04T06:44:39.942Z,21824.00
2022-08-04T06:45:40.026Z,22624.00
2022-08-04T06:46:39.923Z,21312.00
2022-08-04T06:47:39.928Z,21568.00
2022-08-04T06:48:39.903Z,20128.00
2022-08-04T06:51:23.476Z,19360.00
2022-08-04T06:51:31.390Z,18944.00
2022-08-04T06:51:49.068Z,19168.00
2022-08-04T06:52:39.858Z,19904.00
2022-08-04T06:53:39.844Z,20032.00
2022-08-04T06:54:39.839Z,18592.00
2022-08-04T06:55:39.823Z,18656.00
2022-08-04T06:56:39.812Z,19744.00
2022-08-04T06:57:39.809Z,21312.00
2022-08-04T06:58:39.791Z,21792.00
2022-08-04T06:59:39.779Z,24960.00
2022-08-04T07:00:39.774Z,32416.00
2022-08-04T07:01:39.828Z,42656.00
2022-08-04T07:02:39.747Z,46368.00
2022-08-04T07:03:39.737Z,44608.00
2022-08-04T07:04:39.732Z,44736.00
2022-08-04T07:05:39.716Z,46176.00
2022-08-04T07:06:39.710Z,47040.00
2022-08-04T07:07:57.108Z,46880.00
2022-08-04T07:08:40.714Z,42432.00
2022-08-04T07:09:39.683Z,30912.00
2022-08-04T07:10:39.667Z,34528.00
2022-08-04T07:11:44.339Z,48000.00
2022-08-04T07:12:39.650Z,51616.00
2022-08-04T07:13:44.601Z,48096.00
2022-08-04T07:14:39.620Z,50272.00
2022-08-04T07:15:39.617Z,45856.00
2022-08-04T07:16:39.598Z,46752.00
2022-08-04T07:17:39.614Z,44992.00
2022-08-04T07:18:39.593Z,41056.00
2022-08-04T07:19:39.581Z,36864.00
2022-08-04T07:20:39.556Z,35648.00
2022-08-04T07:21:39.544Z,36096.00
2022-08-04T07:22:39.545Z,37728.00
2022-08-04T07:23:39.547Z,38080.00
2022-08-04T07:24:41.456Z,36832.00
2022-08-04T07:26:00.239Z,41280.00
2022-08-04T07:26:39.496Z,45664.00
2022-08-04T07:27:48.329Z,49600.00
2022-08-04T07:28:40.505Z,49216.00
2022-08-04T07:29:39.460Z,49280.00
2022-08-04T07:30:39.470Z,50720.00
2022-08-04T07:31:39.441Z,52672.00
2022-08-04T07:32:39.436Z,49216.00
2022-08-04T07:33:39.419Z,52320.00
2022-08-04T07:34:39.412Z,50720.00
2022-08-04T07:36:04.907Z,44992.00
2022-08-04T07:36:50.079Z,37056.00
2022-08-04T07:37:40.407Z,39424.00
2022-08-04T07:38:48.225Z,35488.00
2022-08-04T07:39:48.107Z,34112.00
2022-08-04T07:40:39.748Z,36832.00
2022-08-04T07:41:39.571Z,37184.00
2022-08-04T07:49:54.735Z,24288.00
2022-08-04T07:50:29.214Z,28128.00
2022-08-04T07:51:29.239Z,31680.00
2022-08-04T07:52:29.223Z,28768.00
2022-08-04T07:53:55.465Z,31008.00
2022-08-04T07:54:30.212Z,33280.00
2022-08-04T07:55:29.165Z,44192.00
2022-08-04T07:56:29.153Z,48704.00
2022-08-04T07:57:41.128Z,52576.00
2022-08-04T07:58:30.482Z,46560.00
2022-08-04T07:59:29.124Z,23008.00
2022-08-04T08:00:29.102Z,58048.00
2022-08-04T08:01:29.098Z,64128.00
2022-08-04T08:02:29.084Z,66432.00
2022-08-04T08:03:29.245Z,73472.00
2022-08-04T08:04:29.071Z,73696.00
2022-08-04T08:05:29.056Z,61344.00
2022-08-04T08:06:32.362Z,51456.00
2022-08-04T08:07:29.042Z,36448.00
2022-08-04T08:08:29.023Z,32064.00
2022-08-04T08:09:29.012Z,33088.00
2022-08-04T08:10:29.006Z,36256.00
2022-08-04T08:12:36.221Z,42144.00
2022-08-04T08:12:37.367Z,44032.00
2022-08-04T08:13:33.154Z,57312.00
2022-08-04T08:14:28.993Z,60832.00
2022-08-04T08:15:28.961Z,60864.00
2022-08-04T08:16:28.943Z,54816.00
2022-08-04T08:17:28.937Z,55648.00
2022-08-04T08:18:28.929Z,57376.00
2022-08-04T08:19:28.914Z,61440.00
2022-08-04T08:20:30.203Z,63328.00
2022-08-04T08:21:28.899Z,61888.00
2022-08-04T08:22:28.888Z,62208.00
2022-08-04T08:23:28.880Z,39520.00
2022-08-04T08:24:28.864Z,53760.00
2022-08-04T08:25:28.871Z,48960.00
2022-08-04T08:26:28.854Z,51776.00
2022-08-04T08:27:28.839Z,42784.00
2022-08-04T08:28:28.831Z,38592.00
2022-08-04T08:29:28.821Z,59264.00
2022-08-04T08:30:31.485Z,58304.00
2022-08-04T08:31:56.200Z,57952.00
2022-08-04T08:32:29.831Z,58720.00
2022-08-04T08:33:28.783Z,61600.00
2022-08-04T08:34:29.097Z,55616.00
2022-08-04T08:35:28.775Z,52576.00
2022-08-04T08:36:28.762Z,44160.00
2022-08-04T08:37:28.905Z,45440.00
2022-08-04T08:38:28.736Z,60160.00
2022-08-04T08:39:28.784Z,76160.00
2022-08-04T08:40:40.768Z,74752.00
2022-08-04T08:41:29.789Z,68832.00
2022-08-04T08:42:28.692Z,66464.00
2022-08-04T08:44:05.121Z,55136.00
2022-08-04T08:44:37.460Z,69440.00
2022-08-04T08:45:28.664Z,67104.00
2022-08-04T08:46:48.367Z,74176.00
2022-08-04T08:47:28.676Z,73344.00
2022-08-04T08:48:28.643Z,66496.00
2022-08-04T08:50:03.061Z,91104.00
2022-08-04T08:50:29.649Z,87552.00
2022-08-04T08:51:28.605Z,84640.00
2022-08-04T08:52:57.568Z,92768.00
2022-08-04T08:53:28.587Z,91136.00
2022-08-04T08:54:28.581Z,70688.00
2022-08-04T08:55:28.579Z,90400.00
2022-08-04T08:56:31.415Z,80896.00
2022-08-04T08:57:28.546Z,78368.00
2022-08-04T08:58:28.541Z,46912.00
2022-08-04T08:59:28.570Z,46560.00
2022-08-04T09:00:31.998Z,82336.00
2022-08-04T09:01:28.569Z,81248.00
2022-08-04T09:02:28.505Z,35136.00
2022-08-04T09:03:28.491Z,93824.00
2022-08-04T09:04:31.964Z,95104.00
2022-08-04T09:05:28.469Z,90176.00
2022-08-04T09:06:28.464Z,90816.00
2022-08-04T09:07:28.451Z,72288.00
2022-08-04T09:08:28.447Z,49440.00
2022-08-04T09:09:28.432Z,35072.00
2022-08-04T09:10:33.054Z,96032.00
2022-08-04T09:11:28.414Z,64096.00
2022-08-04T09:12:28.411Z,96000.00
2022-08-04T09:13:28.426Z,35392.00
2022-08-04T09:14:28.389Z,48416.00
2022-08-04T09:15:28.377Z,36928.00
2022-08-04T09:16:28.373Z,94368.00
2022-08-04T09:17:28.366Z,97152.00
2022-08-04T09:18:28.349Z,40096.00
2022-08-04T09:19:38.514Z,63104.00
2022-08-04T09:20:29.361Z,106944.00
2022-08-04T09:21:28.329Z,67008.00
2022-08-04T09:22:28.317Z,38688.00
2022-08-04T09:23:28.321Z,73856.00
2022-08-04T09:24:35.275Z,32672.00
2022-08-04T09:25:29.320Z,46432.00
2022-08-04T09:26:28.285Z,48896.00
2022-08-04T09:27:28.276Z,34944.00
2022-08-04T09:28:52.143Z,40544.00
2022-08-04T09:29:29.294Z,40160.00
2022-08-04T09:30:28.247Z,41952.00
2022-08-04T09:31:28.236Z,72608.00
2022-08-04T09:32:28.229Z,51360.00
2022-08-04T09:33:45.319Z,33600.00
2022-08-04T09:34:29.248Z,28096.00
2022-08-04T09:35:28.207Z,34400.00
2022-08-04T09:36:28.292Z,38080.00
2022-08-04T09:37:28.203Z,65856.00
2022-08-04T09:38:28.173Z,50176.00
2022-08-04T09:39:28.358Z,38560.00
2022-08-04T09:40:31.614Z,64160.00
2022-08-04T09:41:48.084Z,90688.00
2022-08-04T09:42:30.370Z,94848.00
2022-08-04T09:43:28.122Z,95648.00
2022-08-04T09:44:52.682Z,94720.00
2022-08-04T09:45:36.651Z,89728.00
2022-08-04T09:46:29.124Z,86976.00
2022-08-04T09:47:39.757Z,93792.00
2022-08-04T09:48:29.170Z,86720.00
2022-08-04T09:49:28.070Z,85440.00
2022-08-04T09:50:28.061Z,97504.00
2022-08-04T09:51:57.495Z,98880.00
2022-08-04T09:52:29.075Z,102528.00
2022-08-04T09:53:28.028Z,104608.00
2022-08-04T09:54:30.404Z,107968.00
2022-08-04T09:55:28.011Z,100128.00
2022-08-04T09:56:28.002Z,95232.00
2022-08-04T09:57:27.995Z,93280.00
2022-08-04T09:58:27.987Z,92096.00
2022-08-04T09:59:28.003Z,95808.00
2022-08-04T10:00:40.835Z,93216.00
2022-08-04T10:01:28.988Z,91680.00
2022-08-04T10:02:27.949Z,98016.00
2022-08-04T10:03:28.006Z,84704.00
2022-08-04T10:04:27.936Z,82048.00
2022-08-04T10:05:27.918Z,94848.00
2022-08-04T10:06:27.927Z,95872.00
2022-08-04T10:07:27.905Z,87168.00
2022-08-04T10:08:27.900Z,66528.00
2022-08-04T10:09:27.988Z,75072.00
2022-08-04T10:10:27.880Z,81920.00
2022-08-04T10:11:27.903Z,84416.00
2022-08-04T10:12:27.901Z,89088.00
2022-08-04T10:13:27.881Z,87424.00
2022-08-04T10:14:27.853Z,94592.00
2022-08-04T10:15:27.834Z,94720.00
2022-08-04T10:16:27.826Z,81888.00
2022-08-04T10:17:27.812Z,90752.00
2022-08-04T10:18:27.810Z,92000.00
2022-08-04T10:19:27.809Z,85152.00
2022-08-04T10:20:44.719Z,87488.00
2022-08-04T10:21:29.123Z,88640.00
2022-08-04T10:22:29.778Z,86944.00
2022-08-04T10:23:27.912Z,89344.00
2022-08-04T10:24:27.818Z,81888.00
2022-08-04T10:25:37.347Z,88608.00
2022-08-04T10:26:27.755Z,95360.00
2022-08-04T10:27:27.731Z,87648.00
2022-08-04T10:28:27.737Z,87296.00
2022-08-04T10:29:27.722Z,94432.00
2022-08-04T10:30:27.714Z,88032.00
2022-08-04T10:31:27.704Z,84576.00
2022-08-04T10:32:27.703Z,89056.00
2022-08-04T10:33:27.680Z,91904.00
2022-08-04T10:34:27.689Z,87328.00
2022-08-04T10:35:27.669Z,92320.00
2022-08-04T10:36:27.666Z,88480.00
2022-08-04T10:38:00.364Z,88288.00
2022-08-04T10:38:28.781Z,90176.00
2022-08-04T10:39:43.147Z,89504.00
2022-08-04T10:40:27.624Z,89440.00
2022-08-04T10:41:27.648Z,85376.00
2022-08-04T10:42:27.770Z,76256.00
2022-08-04T10:43:27.792Z,89408.00
2022-08-04T10:44:27.686Z,81792.00
2022-08-04T10:45:27.896Z,84640.00
2022-08-04T10:46:27.709Z,83360.00
2022-08-04T10:47:27.640Z,94336.00
2022-08-04T10:48:35.025Z,98848.00
2022-08-04T10:49:28.845Z,73728.00
2022-08-04T10:50:27.627Z,65536.00
2022-08-04T10:51:27.644Z,79424.00
2022-08-04T10:52:27.737Z,75744.00
2022-08-04T10:53:27.745Z,92160.00
2022-08-04T10:54:27.676Z,99552.00
2022-08-04T10:56:07.679Z,87520.00
2022-08-04T10:56:27.665Z,83456.00
2022-08-04T10:57:27.760Z,97440.00
2022-08-04T10:58:47.907Z,85344.00
2022-08-04T10:59:27.767Z,87200.00
2022-08-04T11:00:27.930Z,68480.00
2022-08-04T11:01:59.545Z,91232.00
2022-08-04T11:02:28.687Z,103104.00
2022-08-04T11:03:27.792Z,90688.00
2022-08-04T11:04:28.111Z,79872.00
2022-08-04T11:05:27.594Z,97120.00
2022-08-04T11:06:27.450Z,102272.00
2022-08-04T11:07:27.444Z,87712.00
2022-08-04T11:08:27.520Z,84192.00
2022-08-04T11:09:27.431Z,92608.00
2022-08-04T11:10:27.611Z,99456.00
2022-08-04T11:11:28.015Z,98720.00
2022-08-04T11:12:27.416Z,92096.00
2022-08-04T11:13:29.829Z,94784.00
2022-08-04T11:14:27.442Z,94752.00
2022-08-04T11:15:27.515Z,83936.00
2022-08-04T11:16:27.461Z,94144.00
2022-08-04T11:17:27.418Z,116032.00
2022-08-04T11:18:27.520Z,96128.00
2022-08-04T11:19:42.631Z,84480.00
2022-08-04T11:20:36.532Z,102816.00
2022-08-04T11:21:28.510Z,117216.00
2022-08-04T11:22:27.464Z,89600.00
2022-08-04T11:23:27.456Z,82304.00
2022-08-04T11:24:27.436Z,88224.00
2022-08-04T11:25:27.267Z,100736.00
2022-08-04T11:26:27.278Z,90688.00
2022-08-04T11:27:27.252Z,94080.00
2022-08-04T11:28:30.387Z,89920.00
2022-08-04T11:29:27.254Z,88512.00
2022-08-04T11:30:27.261Z,98720.00
2022-08-04T11:31:27.219Z,93792.00
2022-08-04T11:32:27.256Z,83808.00
2022-08-04T11:33:27.281Z,98656.00
2022-08-04T11:34:27.405Z,103040.00
2022-08-04T11:35:27.440Z,97120.00
2022-08-04T11:36:27.403Z,101344.00
2022-08-04T11:37:27.473Z,103744.00
2022-08-04T11:38:32.097Z,98304.00
2022-08-04T11:39:27.274Z,92032.00
2022-08-04T11:40:27.204Z,90336.00
2022-08-04T11:41:27.194Z,98656.00
2022-08-04T11:42:27.198Z,105760.00
2022-08-04T11:44:01.627Z,97504.00
2022-08-04T11:44:28.157Z,91936.00
2022-08-04T11:45:27.172Z,104704.00
2022-08-04T11:46:27.122Z,105280.00
2022-08-04T11:47:30.317Z,96352.00
2022-08-04T11:48:27.339Z,89984.00
2022-08-04T11:49:27.076Z,105824.00
2022-08-04T11:50:27.071Z,100800.00
2022-08-04T11:51:27.069Z,86688.00
2022-08-04T11:52:27.190Z,88544.00
2022-08-04T11:53:34.697Z,100992.00
2022-08-04T11:54:27.104Z,98240.00
2022-08-04T11:55:27.073Z,92192.00
2022-08-04T11:56:27.669Z,98080.00
2022-08-04T11:57:35.608Z,89952.00
2022-08-04T11:58:27.017Z,85344.00
2022-08-04T11:59:27.226Z,97248.00
2022-08-04T12:00:27.249Z,93024.00
2022-08-04T12:01:27.005Z,85568.00
2022-08-04T12:02:27.484Z,92704.00
2022-08-04T12:03:27.042Z,91264.00
2022-08-04T12:04:27.205Z,96384.00
2022-08-04T12:05:35.711Z,91936.00
2022-08-04T12:06:28.319Z,84640.00
2022-08-04T12:07:31.386Z,83232.00
2022-08-04T12:08:26.895Z,80128.00
2022-08-04T12:09:26.970Z,100288.00
2022-08-04T12:10:42.228Z,93504.00
2022-08-04T12:11:28.215Z,76640.00
2022-08-04T12:12:27.319Z,92576.00
2022-08-04T12:13:26.867Z,88800.00
2022-08-04T12:14:26.868Z,83648.00
2022-08-04T12:15:26.928Z,89664.00
2022-08-04T12:16:30.454Z,77216.00
2022-08-04T12:17:26.986Z,76992.00
2022-08-04T12:18:28.048Z,78048.00
2022-08-04T12:19:30.924Z,47712.00